Boise (BOI/KBOI)

Map

Destinations

Information

Location
Boise, ID
Local Time
07:14 / 7:14 am
GMT Time
14:14 / 2:14 pm
Gates
Unassigned
No FAA reported delays
METAR KBOI 221353Z 12013KT 10SM FEW120 03/M03 A2972 RMK AO2 SLP071 T00331033
TAF KBOI 221120Z 2212/2312 13012KT P6SM SCT050 BKN090 FM221700 13011G21KT P6SM VCSH SCT050 OVC090 FM221900 13014KT 3SM -RASN BR SCT015 OVC025 FM230000 13006KT P6SM SCT025 OVC050
  • No charts available